Time;durP1;ratioP1;P1;durP2;ratioP2;P2;SDS_P1;SDS_P2;PMS_P1;PMS_P2;Temp;Humidity;BMP_temperature;BMP_pressure;BME280_temperature;BME280_humidity;BME280_pressure;Samples;Min_cycle;Max_cycle;Signal;HPM_P1;HPM_P2
2023/05/18 00:01:39;;;;;;;7.67;6.37;;;9.20;99.90;;;;;;5033022;28;20547;-74
2023/05/18 00:04:06;;;;;;;12.10;6.93;;;9.50;99.90;;;;;;5034197;28;20547;-74
2023/05/18 00:06:32;;;;;;;9.90;6.60;;;9.60;99.90;;;;;;5033047;28;20444;-74
2023/05/18 00:08:58;;;;;;;9.70;6.47;;;9.60;99.90;;;;;;5034132;28;20487;-74
2023/05/18 00:11:23;;;;;;;9.43;6.27;;;9.60;99.90;;;;;;5034577;28;20180;-75
2023/05/18 00:13:49;;;;;;;8.60;6.90;;;9.50;99.90;;;;;;5034534;28;20203;-74
2023/05/18 00:16:14;;;;;;;8.57;6.87;;;9.40;99.90;;;;;;5033091;28;20260;-75
2023/05/18 00:18:40;;;;;;;12.93;6.63;;;9.40;99.90;;;;;;5032624;28;20198;-74
2023/05/18 00:21:07;;;;;;;8.80;7.23;;;9.40;99.90;;;;;;5034219;28;20279;-74
2023/05/18 00:23:33;;;;;;;10.00;7.40;;;9.40;99.90;;;;;;5032337;28;20460;-75
2023/05/18 00:26:00;;;;;;;11.90;7.83;;;9.30;99.90;;;;;;5014312;28;20448;-74
2023/05/18 00:28:26;;;;;;;9.23;7.50;;;9.20;99.90;;;;;;5014122;28;20228;-74
2023/05/18 00:30:52;;;;;;;17.27;8.73;;;9.10;99.90;;;;;;4996624;28;20818;-74
2023/05/18 00:33:18;;;;;;;9.70;7.40;;;9.10;99.90;;;;;;5013983;28;20213;-74
2023/05/18 00:35:43;;;;;;;9.67;8.13;;;9.20;99.90;;;;;;5014048;28;20413;-74
2023/05/18 00:38:10;;;;;;;10.67;7.80;;;9.20;99.90;;;;;;5014071;28;20178;-74
2023/05/18 00:40:36;;;;;;;15.07;8.87;;;9.20;99.90;;;;;;5014761;28;20166;-74
2023/05/18 00:43:02;;;;;;;14.03;8.00;;;9.20;99.90;;;;;;5013844;28;20515;-74
2023/05/18 00:45:27;;;;;;;12.97;7.67;;;9.20;99.90;;;;;;5013906;28;20228;-75
2023/05/18 00:47:53;;;;;;;13.53;8.80;;;9.20;99.90;;;;;;5013635;28;20181;-74
2023/05/18 00:50:19;;;;;;;9.37;8.40;;;9.30;99.90;;;;;;5013821;28;20174;-75
2023/05/18 00:52:45;;;;;;;11.60;8.50;;;9.20;99.90;;;;;;5013640;28;20232;-75
2023/05/18 00:55:13;;;;;;;11.60;7.97;;;9.10;99.90;;;;;;5026923;28;20509;-74
2023/05/18 00:57:40;;;;;;;9.37;7.40;;;9.00;99.90;;;;;;5033407;28;20781;-74
2023/05/18 01:00:09;;;;;;;11.37;8.13;;;9.00;99.90;;;;;;5033432;28;20434;-75
2023/05/18 01:02:35;;;;;;;10.67;7.93;;;9.00;99.90;;;;;;5033319;28;20436;-74
2023/05/18 01:05:02;;;;;;;9.23;8.27;;;9.00;99.90;;;;;;5033083;28;20754;-74
2023/05/18 01:07:28;;;;;;;9.00;8.07;;;9.00;99.90;;;;;;5033508;28;20459;-75
2023/05/18 01:09:54;;;;;;;10.20;7.83;;;9.10;99.90;;;;;;5032934;28;20454;-74
2023/05/18 01:12:40;;;;;;;10.60;8.17;;;9.10;99.90;;;;;;5033241;28;20793;-74
2023/05/18 01:15:21;;;;;;;9.87;7.90;;;9.10;99.90;;;;;;5015284;28;20214;-74
2023/05/18 01:18:05;;;;;;;10.40;8.20;;;9.10;99.90;;;;;;5015159;28;20498;-75
2023/05/18 01:20:40;;;;;;;10.73;7.70;;;9.00;99.90;;;;;;5032927;28;20400;-74
2023/05/18 01:23:19;;;;;;;10.33;8.33;;;8.90;99.90;;;;;;5032466;28;20492;-74
2023/05/18 01:25:53;;;;;;;13.00;9.47;;;8.90;99.90;;;;;;5032806;28;20418;-74
2023/05/18 01:28:25;;;;;;;10.77;8.33;;;8.80;99.90;;;;;;5032675;28;20459;-74
2023/05/18 01:30:51;;;;;;;9.43;7.93;;;8.80;99.90;;;;;;5033007;28;20521;-75
2023/05/18 01:33:17;;;;;;;8.40;7.50;;;8.70;99.90;;;;;;5014656;28;20455;-75
2023/05/18 01:35:46;;;;;;;10.70;7.50;;;8.70;99.90;;;;;;5032731;28;20703;-75
2023/05/18 01:38:15;;;;;;;9.30;8.20;;;8.60;99.90;;;;;;5032700;28;20830;-74
2023/05/18 01:40:55;;;;;;;9.63;7.60;;;8.60;99.90;;;;;;5031837;28;20407;-75
2023/05/18 01:43:25;;;;;;;7.73;6.87;;;8.60;99.90;;;;;;5031784;28;20442;-75
2023/05/18 01:45:55;;;;;;;9.23;7.17;;;8.70;99.90;;;;;;5032639;28;20403;-74
2023/05/18 01:48:24;;;;;;;8.50;6.93;;;8.70;99.90;;;;;;5032658;28;20756;-75
2023/05/18 01:50:54;;;;;;;9.50;7.60;;;8.60;99.90;;;;;;5033109;28;20472;-74
2023/05/18 01:53:27;;;;;;;10.43;7.60;;;8.50;99.90;;;;;;5032185;28;20465;-75
2023/05/18 01:55:54;;;;;;;10.43;8.27;;;8.50;99.90;;;;;;5031368;28;20584;-75
2023/05/18 01:58:21;;;;;;;8.47;7.47;;;8.40;99.90;;;;;;5032176;28;20916;-74
2023/05/18 02:00:47;;;;;;;10.77;8.83;;;8.50;99.90;;;;;;5031155;28;20407;-74
2023/05/18 02:03:13;;;;;;;13.33;9.20;;;8.50;99.90;;;;;;5032549;28;20512;-74
2023/05/18 02:05:39;;;;;;;12.50;8.83;;;8.50;99.90;;;;;;5032436;28;20445;-75
2023/05/18 02:08:05;;;;;;;12.23;8.53;;;8.50;99.90;;;;;;5032222;28;20521;-74
2023/05/18 02:10:30;;;;;;;10.23;8.83;;;8.40;99.90;;;;;;5032356;28;20585;-74
2023/05/18 02:12:56;;;;;;;11.10;9.03;;;8.30;99.90;;;;;;5032225;28;20430;-74
2023/05/18 02:15:22;;;;;;;12.47;10.30;;;8.30;99.90;;;;;;5032328;28;20612;-75
2023/05/18 02:17:47;;;;;;;10.33;8.77;;;8.10;99.90;;;;;;5032207;28;20186;-74
2023/05/18 02:20:17;;;;;;;9.00;7.87;;;8.10;99.90;;;;;;5031949;28;20180;-74
2023/05/18 02:22:44;;;;;;;11.03;9.17;;;8.20;99.90;;;;;;5031988;28;20210;-75
2023/05/18 02:25:10;;;;;;;11.87;9.40;;;8.10;99.90;;;;;;5019510;28;20415;-75
2023/05/18 02:27:35;;;;;;;10.20;9.20;;;8.10;99.90;;;;;;5013023;28;20494;-74
2023/05/18 02:30:04;;;;;;;11.80;9.77;;;8.00;99.90;;;;;;4994748;28;20201;-74
2023/05/18 02:32:32;;;;;;;12.40;9.90;;;8.00;99.90;;;;;;4994771;28;20279;-74
2023/05/18 02:35:01;;;;;;;9.40;8.50;;;8.10;99.90;;;;;;4994518;28;20459;-74
2023/05/18 02:37:27;;;;;;;9.90;8.60;;;8.10;99.90;;;;;;5012542;28;20415;-74
2023/05/18 02:39:52;;;;;;;9.90;8.90;;;8.00;99.90;;;;;;5015255;28;20495;-74
2023/05/18 02:42:18;;;;;;;11.40;9.80;;;8.10;99.90;;;;;;5016262;28;20436;-74
2023/05/18 02:44:43;;;;;;;12.57;9.50;;;8.10;99.90;;;;;;5016292;28;20188;-74
2023/05/18 02:47:09;;;;;;;10.73;9.73;;;8.00;99.90;;;;;;5016320;28;20184;-74
2023/05/18 02:49:34;;;;;;;10.93;8.43;;;8.00;99.90;;;;;;5015734;28;20172;-74
2023/05/18 02:52:00;;;;;;;10.13;9.03;;;7.90;99.90;;;;;;5016004;28;20199;-75
2023/05/18 02:54:26;;;;;;;13.77;9.20;;;7.90;99.90;;;;;;5015651;28;20617;-75
2023/05/18 02:56:55;;;;;;;10.80;9.70;;;7.80;99.90;;;;;;5015858;28;20168;-75
2023/05/18 02:59:21;;;;;;;12.27;9.77;;;7.80;99.90;;;;;;4998134;28;20179;-74
2023/05/18 03:01:46;;;;;;;10.30;9.20;;;7.80;99.90;;;;;;5015812;28;20414;-75
2023/05/18 03:04:12;;;;;;;10.77;9.20;;;7.80;99.90;;;;;;5015529;28;20179;-75
2023/05/18 03:06:39;;;;;;;12.47;9.63;;;7.70;99.90;;;;;;5015861;28;20172;-74
2023/05/18 03:09:04;;;;;;;11.30;8.63;;;7.60;99.90;;;;;;5015329;28;20502;-75
2023/05/18 03:11:30;;;;;;;10.37;8.40;;;7.60;99.90;;;;;;5015652;28;20453;-74
2023/05/18 03:13:56;;;;;;;16.37;8.57;;;7.50;99.90;;;;;;5015411;28;20207;-74
2023/05/18 03:16:27;;;;;;;13.13;8.90;;;7.60;99.90;;;;;;5015540;28;20169;-74
2023/05/18 03:18:57;;;;;;;13.50;9.20;;;7.60;99.90;;;;;;5015462;28;20156;-75
2023/05/18 03:21:23;;;;;;;9.93;8.83;;;7.60;99.90;;;;;;5015639;28;20835;-74
2023/05/18 03:23:48;;;;;;;13.27;9.47;;;7.50;99.90;;;;;;4997238;28;20458;-74
2023/05/18 03:26:15;;;;;;;8.83;7.93;;;7.40;99.90;;;;;;4997816;28;20647;-74
2023/05/18 03:28:41;;;;;;;9.23;8.03;;;7.40;99.90;;;;;;5018462;28;20180;-75
2023/05/18 03:31:06;;;;;;;11.30;8.90;;;7.40;99.90;;;;;;5034992;28;20964;-74
2023/05/18 03:33:32;;;;;;;9.17;7.67;;;7.40;99.90;;;;;;5016909;28;20638;-74
2023/05/18 03:36:03;;;;;;;11.37;8.40;;;7.40;99.90;;;;;;5035101;28;20543;-74
2023/05/18 03:38:29;;;;;;;11.60;9.77;;;7.40;99.90;;;;;;5017058;28;20449;-75
2023/05/18 03:40:55;;;;;;;9.27;7.77;;;7.40;99.90;;;;;;5034973;28;20805;-75
2023/05/18 03:43:24;;;;;;;10.87;8.00;;;7.40;99.90;;;;;;5011315;28;20203;-75
2023/05/18 03:45:49;;;;;;;10.63;8.90;;;7.30;99.90;;;;;;5015145;28;20219;-75
2023/05/18 03:48:15;;;;;;;12.67;9.30;;;7.20;99.90;;;;;;5014848;28;20443;-75
2023/05/18 03:50:40;;;;;;;10.67;9.07;;;7.20;99.90;;;;;;5014815;28;20172;-75
2023/05/18 03:53:06;;;;;;;9.80;8.77;;;7.20;99.90;;;;;;5014736;28;20200;-74
2023/05/18 03:55:31;;;;;;;13.40;9.70;;;7.20;99.90;;;;;;5011287;28;20262;-74
2023/05/18 03:57:58;;;;;;;10.87;9.30;;;7.20;99.90;;;;;;5034644;28;20254;-74
2023/05/18 04:00:23;;;;;;;11.93;9.10;;;7.30;99.90;;;;;;5034878;28;20645;-74
2023/05/18 04:02:50;;;;;;;11.67;8.63;;;7.30;99.90;;;;;;5034328;28;20426;-74
2023/05/18 04:05:16;;;;;;;11.57;9.20;;;7.40;99.90;;;;;;5034433;28;20405;-75
2023/05/18 04:07:42;;;;;;;13.00;9.13;;;7.40;99.90;;;;;;5035087;28;20413;-74
2023/05/18 04:10:10;;;;;;;11.27;8.87;;;7.50;99.90;;;;;;5033048;28;20493;-74
2023/05/18 04:12:36;;;;;;;12.43;9.83;;;7.50;99.90;;;;;;5034764;28;20215;-74
2023/05/18 04:15:02;;;;;;;13.27;9.20;;;7.50;99.90;;;;;;5034559;28;20478;-74
2023/05/18 04:17:28;;;;;;;11.50;8.10;;;7.50;99.90;;;;;;5034838;28;20175;-74
2023/05/18 04:19:54;;;;;;;12.50;8.90;;;7.60;99.90;;;;;;5032920;28;20410;-74
2023/05/18 04:22:20;;;;;;;11.87;9.10;;;7.60;99.90;;;;;;5046234;23;20278;-74
2023/05/18 04:24:47;;;;;;;12.90;8.80;;;;;;;;;;5016559;28;20187;-74
2023/05/18 04:27:13;;;;;;;10.63;8.30;;;;;;;;;;5034489;28;20398;-74
2023/05/18 04:29:39;;;;;;;8.10;7.30;;;;;;;;;;5016690;28;20406;-73
2023/05/18 04:32:09;;;;;;;9.80;8.40;;;7.60;99.90;;;;;;5034705;28;20424;-74
2023/05/18 04:34:36;;;;;;;9.73;7.40;;;7.60;99.90;;;;;;5034153;28;20949;-74
2023/05/18 04:37:04;;;;;;;9.77;7.97;;;7.70;99.90;;;;;;5016692;28;20418;-74
2023/05/18 04:39:31;;;;;;;9.03;7.77;;;7.80;99.90;;;;;;5034004;28;20447;-73
2023/05/18 04:41:57;;;;;;;12.03;7.80;;;7.80;99.90;;;;;;5034297;28;20406;-74
2023/05/18 04:44:26;;;;;;;8.17;7.23;;;7.80;99.90;;;;;;5034142;28;20448;-74
2023/05/18 04:46:53;;;;;;;8.43;7.57;;;7.80;99.90;;;;;;5034217;28;20249;-74
2023/05/18 04:49:21;;;;;;;9.73;8.27;;;8.00;99.90;;;;;;5033931;28;20406;-74
2023/05/18 04:51:49;;;;;;;10.10;8.30;;;7.90;99.90;;;;;;5033981;28;20417;-74
2023/05/18 04:54:15;;;;;;;9.40;8.40;;;8.00;99.90;;;;;;5034112;28;20463;-74
2023/05/18 04:56:41;;;;;;;11.00;7.90;;;8.00;99.90;;;;;;5033856;28;20491;-74
2023/05/18 04:59:08;;;;;;;13.33;8.80;;;8.10;99.90;;;;;;5034294;28;20406;-73
2023/05/18 05:01:33;;;;;;;8.43;7.50;;;8.10;99.90;;;;;;5033363;28;20415;-73
2023/05/18 05:03:59;;;;;;;8.27;7.30;;;8.10;99.90;;;;;;5033602;28;20415;-74
2023/05/18 05:06:25;;;;;;;9.90;7.20;;;8.10;99.90;;;;;;5033907;28;20647;-74
2023/05/18 05:08:50;;;;;;;11.43;9.00;;;8.30;99.90;;;;;;5016122;28;20177;-74
2023/05/18 05:11:16;;;;;;;13.63;8.03;;;8.30;99.90;;;;;;5033696;28;20177;-74
2023/05/18 05:13:42;;;;;;;9.73;8.23;;;8.40;99.90;;;;;;5033508;28;20286;-73
2023/05/18 05:16:07;;;;;;;10.23;7.90;;;8.50;99.90;;;;;;5014374;28;20561;-74
2023/05/18 05:18:33;;;;;;;10.13;7.70;;;8.60;99.90;;;;;;5012849;28;20184;-73
2023/05/18 05:20:58;;;;;;;10.40;7.90;;;8.70;99.90;;;;;;5016553;28;20172;-74
2023/05/18 05:23:24;;;;;;;9.93;8.50;;;8.80;99.90;;;;;;5012524;28;20225;-72
2023/05/18 05:25:49;;;;;;;10.03;8.63;;;8.90;99.90;;;;;;5015133;28;20235;-74
2023/05/18 05:28:15;;;;;;;10.20;9.10;;;9.00;99.90;;;;;;5012521;28;20188;-72
2023/05/18 05:30:40;;;;;;;12.23;8.73;;;9.20;99.90;;;;;;5016539;28;20320;-74
2023/05/18 05:33:06;;;;;;;7.90;6.83;;;9.20;99.90;;;;;;5000508;28;20206;-74
2023/05/18 05:35:32;;;;;;;9.90;7.20;;;9.30;99.90;;;;;;5011930;28;20715;-74
2023/05/18 05:37:57;;;;;;;9.73;7.80;;;9.40;99.90;;;;;;5013910;28;20535;-75
2023/05/18 05:40:23;;;;;;;11.43;7.40;;;9.40;99.90;;;;;;5013618;28;20296;-73
2023/05/18 05:42:49;;;;;;;8.60;6.53;;;9.50;99.90;;;;;;4998180;28;20650;-74
2023/05/18 05:45:14;;;;;;;7.80;6.57;;;9.60;99.90;;;;;;5013552;28;20162;-74
2023/05/18 05:47:40;;;;;;;8.77;7.33;;;9.80;99.90;;;;;;5014067;28;20638;-74
2023/05/18 05:50:06;;;;;;;13.30;7.40;;;9.90;99.90;;;;;;5013141;28;20232;-73
2023/05/18 05:52:32;;;;;;;9.23;7.30;;;10.00;99.90;;;;;;4995555;28;20194;-73
2023/05/18 05:54:57;;;;;;;8.03;5.77;;;10.10;99.90;;;;;;5023096;28;20452;-74
2023/05/18 05:57:23;;;;;;;8.73;5.97;;;10.20;99.90;;;;;;5032926;28;20708;-74
2023/05/18 05:59:48;;;;;;;7.17;5.67;;;9.90;99.90;;;;;;5015545;28;20170;-74
2023/05/18 06:02:14;;;;;;;9.30;5.90;;;9.50;99.90;;;;;;5015366;28;20187;-73
2023/05/18 06:04:40;;;;;;;10.13;5.40;;;9.40;99.90;;;;;;5032973;28;20167;-74
2023/05/18 06:07:06;;;;;;;8.43;6.10;;;9.60;99.90;;;;;;5032969;28;20182;-74
2023/05/18 06:09:31;;;;;;;11.23;6.63;;;9.50;99.90;;;;;;5015458;28;20958;-73
2023/05/18 06:11:57;;;;;;;8.83;5.50;;;9.30;99.90;;;;;;5032812;28;20497;-74
2023/05/18 06:14:22;;;;;;;7.67;5.23;;;9.30;99.90;;;;;;5037090;28;20598;-74
2023/05/18 06:16:48;;;;;;;9.47;6.30;;;9.40;99.90;;;;;;5037120;28;20205;-74
2023/05/18 06:19:14;;;;;;;7.23;5.27;;;9.50;99.90;;;;;;5019142;28;20713;-74
2023/05/18 06:21:39;;;;;;;10.53;5.37;;;9.80;99.90;;;;;;5036959;28;20169;-74
2023/05/18 06:24:05;;;;;;;8.03;5.20;;;9.80;99.90;;;;;;5038515;28;20692;-74
2023/05/18 06:26:31;;;;;;;9.43;5.00;;;10.10;99.90;;;;;;5056418;28;20301;-74
2023/05/18 06:28:56;;;;;;;6.23;4.70;;;10.10;99.90;;;;;;5038848;28;20417;-74
2023/05/18 06:31:22;;;;;;;6.77;4.57;;;10.20;99.90;;;;;;5056758;28;20181;-74
2023/05/18 06:33:48;;;;;;;8.30;6.20;;;10.40;99.90;;;;;;5056440;28;20205;-73
2023/05/18 06:36:15;;;;;;;11.20;6.23;;;10.60;99.90;;;;;;5056453;28;20517;-74
2023/05/18 06:38:41;;;;;;;11.20;5.87;;;10.70;99.90;;;;;;5056466;28;20173;-74
2023/05/18 06:41:06;;;;;;;11.40;6.53;;;10.50;99.90;;;;;;5056281;28;20487;-74
2023/05/18 06:43:32;;;;;;;8.50;6.10;;;10.60;99.90;;;;;;5056533;28;20589;-74
2023/05/18 06:45:58;;;;;;;7.90;5.93;;;10.70;99.90;;;;;;5056667;28;20244;-74
2023/05/18 06:48:25;;;;;;;6.70;5.27;;;10.60;99.90;;;;;;5056522;28;20167;-74
2023/05/18 06:50:51;;;;;;;11.40;5.60;;;10.80;99.90;;;;;;5055998;28;20163;-73
2023/05/18 06:53:17;;;;;;;8.70;6.03;;;10.60;99.90;;;;;;5055994;28;20541;-74
2023/05/18 06:55:42;;;;;;;13.10;7.57;;;10.50;99.90;;;;;;5023910;28;20180;-74
2023/05/18 06:58:08;;;;;;;13.93;7.90;;;10.60;99.90;;;;;;5017012;28;20172;-74
2023/05/18 07:00:33;;;;;;;7.90;5.00;;;11.00;99.90;;;;;;5016681;28;20551;-74
2023/05/18 07:03:00;;;;;;;6.40;5.03;;;11.40;99.90;;;;;;5016263;28;20655;-74
2023/05/18 07:05:26;;;;;;;7.03;5.03;;;11.10;99.90;;;;;;5016484;28;20157;-72
2023/05/18 07:07:52;;;;;;;10.40;5.47;;;11.10;99.90;;;;;;5016589;28;20410;-72
2023/05/18 07:10:17;;;;;;;9.57;5.17;;;11.10;99.90;;;;;;5016338;28;20876;-74
2023/05/18 07:12:43;;;;;;;6.73;4.90;;;11.10;99.90;;;;;;5017196;28;20184;-73
2023/05/18 07:15:10;;;;;;;7.90;5.03;;;11.00;99.90;;;;;;5017649;28;20201;-73
2023/05/18 07:17:36;;;;;;;8.00;4.73;;;11.10;99.90;;;;;;5017237;28;20167;-73
2023/05/18 07:20:04;;;;;;;12.00;5.03;;;11.30;99.90;;;;;;5017532;28;20408;-73
2023/05/18 07:22:30;;;;;;;6.47;4.83;;;11.30;99.90;;;;;;5017097;28;20447;-73
2023/05/18 07:24:57;;;;;;;9.40;5.30;;;11.40;99.90;;;;;;5035996;28;20954;-72
2023/05/18 07:27:23;;;;;;;7.17;4.87;;;11.30;99.90;;;;;;5038258;28;20206;-73
2023/05/18 07:29:48;;;;;;;8.60;4.60;;;11.30;99.90;;;;;;5055609;28;20441;-74
2023/05/18 07:32:14;;;;;;;7.57;5.17;;;11.60;99.90;;;;;;5055474;28;20184;-74
2023/05/18 07:34:42;;;;;;;7.30;5.20;;;11.50;99.90;;;;;;5055153;28;20191;-73
2023/05/18 07:37:08;;;;;;;11.30;5.23;;;11.60;99.90;;;;;;5055851;28;20230;-74
2023/05/18 07:39:34;;;;;;;5.40;4.40;;;11.70;99.90;;;;;;5056048;28;20401;-76
2023/05/18 07:42:01;;;;;;;8.83;5.30;;;11.80;99.90;;;;;;5025815;28;20421;-75
2023/05/18 07:44:26;;;;;;;11.03;5.20;;;12.00;99.90;;;;;;5016180;28;20399;-73
2023/05/18 07:46:52;;;;;;;6.13;5.00;;;12.00;99.90;;;;;;5015625;28;20411;-73
2023/05/18 07:49:18;;;;;;;10.93;6.07;;;12.10;99.90;;;;;;5034557;28;20255;-73
2023/05/18 07:51:43;;;;;;;8.70;4.60;;;12.30;99.90;;;;;;5035644;28;20225;-74
2023/05/18 07:54:09;;;;;;;9.20;5.33;;;12.40;99.90;;;;;;5017341;28;20257;-73
2023/05/18 07:56:35;;;;;;;7.40;4.93;;;12.60;99.90;;;;;;5034605;28;20246;-73
2023/05/18 07:59:01;;;;;;;8.17;5.43;;;12.80;99.90;;;;;;5035911;28;20506;-72
2023/05/18 08:01:28;;;;;;;10.10;5.53;;;12.80;99.90;;;;;;5034969;28;20166;-72
2023/05/18 08:03:55;;;;;;;7.13;4.90;;;12.70;99.90;;;;;;5034848;28;20429;-73
2023/05/18 08:06:21;;;;;;;9.30;5.33;;;12.80;99.90;;;;;;5034809;28;20840;-72
2023/05/18 08:08:46;;;;;;;6.10;5.23;;;12.90;99.90;;;;;;5017115;28;20449;-73
2023/05/18 08:11:12;;;;;;;9.47;5.20;;;13.10;99.90;;;;;;5016674;28;20243;-73
2023/05/18 08:13:37;;;;;;;11.23;5.20;;;13.10;99.90;;;;;;5016866;28;20196;-73
2023/05/18 08:16:03;;;;;;;9.80;4.57;;;13.30;99.90;;;;;;5034722;28;20179;-73
2023/05/18 08:18:29;;;;;;;6.20;4.27;;;13.50;99.90;;;;;;5034570;28;20543;-71
2023/05/18 08:20:54;;;;;;;10.00;5.43;;;13.70;99.90;;;;;;5034382;28;20214;-72
2023/05/18 08:23:20;;;;;;;8.07;5.33;;;13.60;99.90;;;;;;5034250;28;20609;-73
2023/05/18 08:25:46;;;;;;;9.77;4.60;;;13.70;99.90;;;;;;5034151;28;20176;-73
2023/05/18 08:28:11;;;;;;;8.40;4.50;;;13.80;99.90;;;;;;5034463;28;20171;-72
2023/05/18 08:30:37;;;;;;;9.13;4.47;;;13.90;99.90;;;;;;5034486;28;20168;-73
2023/05/18 08:33:03;;;;;;;15.93;7.17;;;13.90;99.90;;;;;;5034211;28;20191;-73
2023/05/18 08:35:28;;;;;;;9.10;5.80;;;14.00;99.90;;;;;;5034262;28;20689;-73
2023/05/18 08:37:54;;;;;;;6.10;4.67;;;14.20;99.90;;;;;;5033527;28;20204;-73
2023/05/18 08:40:20;;;;;;;7.23;4.90;;;14.30;99.90;;;;;;5016206;28;20192;-73
2023/05/18 08:42:48;;;;;;;5.37;4.33;;;14.20;99.90;;;;;;5034101;28;20613;-72
2023/05/18 08:45:28;;;;;;;8.60;4.87;;;14.20;99.90;;;;;;5034482;28;20410;-73
2023/05/18 08:47:56;;;;;;;7.77;4.00;;;14.20;99.90;;;;;;5034367;28;20766;-72
2023/05/18 08:50:23;;;;;;;6.33;5.10;;;14.30;99.90;;;;;;5033752;28;20785;-72
2023/05/18 08:52:54;;;;;;;9.03;4.80;;;14.40;99.90;;;;;;5033904;28;20499;-72
2023/05/18 08:55:20;;;;;;;7.00;4.80;;;14.60;99.90;;;;;;5033685;28;20966;-72
2023/05/18 08:57:54;;;;;;;8.80;4.70;;;14.60;99.90;;;;;;5033960;28;20396;-73
2023/05/18 09:00:21;;;;;;;9.33;4.30;;;14.80;99.90;;;;;;5016227;28;20418;-74
2023/05/18 09:02:47;;;;;;;7.80;4.10;;;14.80;99.90;;;;;;5033921;28;20535;-72
2023/05/18 09:05:14;;;;;;;9.13;4.40;;;15.00;99.90;;;;;;5033526;28;20413;-72
2023/05/18 09:07:41;;;;;;;7.83;4.40;;;15.10;99.90;;;;;;5033846;28;20938;-73
2023/05/18 09:10:14;;;;;;;7.10;4.20;;;15.20;99.90;;;;;;5033960;28;20413;-72
2023/05/18 09:12:42;;;;;;;5.73;4.50;;;15.00;99.60;;;;;;5033392;28;20423;-72
2023/05/18 09:15:12;;;;;;;8.40;4.30;;;15.30;99.60;;;;;;5033852;28;20449;-72
2023/05/18 09:17:38;;;;;;;8.93;4.77;;;15.50;98.80;;;;;;5033765;28;20408;-71
2023/05/18 09:20:04;;;;;;;8.40;3.97;;;15.50;98.50;;;;;;5033208;28;20411;-72
2023/05/18 09:22:31;;;;;;;9.03;4.67;;;15.50;98.30;;;;;;5033247;28;20194;-71
2023/05/18 09:24:57;;;;;;;10.20;4.30;;;15.60;98.20;;;;;;5033635;28;20504;-72
2023/05/18 09:27:23;;;;;;;8.90;4.10;;;15.40;97.80;;;;;;5033217;28;20479;-73
2023/05/18 09:29:56;;;;;;;6.60;4.20;;;15.40;98.70;;;;;;5033972;28;20171;-76
2023/05/18 09:32:22;;;;;;;7.57;4.40;;;15.50;97.60;;;;;;5033742;28;20440;-72
2023/05/18 09:34:49;;;;;;;6.53;4.33;;;15.70;97.90;;;;;;5015345;28;20488;-72
2023/05/18 09:37:18;;;;;;;6.47;4.57;;;15.80;97.00;;;;;;5029968;28;20424;-72
2023/05/18 09:39:51;;;;;;;7.90;5.80;;;15.70;97.70;;;;;;5033176;28;20396;-72
2023/05/18 09:42:17;;;;;;;8.30;4.40;;;16.10;97.20;;;;;;5032806;28;20417;-72
2023/05/18 09:44:44;;;;;;;8.53;4.87;;;16.20;96.70;;;;;;5033074;28;20466;-72
2023/05/18 09:47:10;;;;;;;7.50;4.20;;;16.20;96.70;;;;;;5032857;28;20180;-72
2023/05/18 09:49:36;;;;;;;7.40;4.20;;;16.40;96.90;;;;;;5032503;28;20404;-72
2023/05/18 09:52:06;;;;;;;7.50;4.37;;;16.80;95.90;;;;;;5032948;28;20161;-72
2023/05/18 09:54:34;;;;;;;7.83;4.30;;;16.70;95.50;;;;;;5026693;28;20457;-72
2023/05/18 09:56:59;;;;;;;10.23;4.50;;;16.80;95.10;;;;;;5013205;28;20408;-72
2023/05/18 09:59:25;;;;;;;8.57;4.33;;;16.90;95.20;;;;;;5013297;28;20424;-72
2023/05/18 10:02:04;;;;;;;5.57;4.10;;;16.60;95.30;;;;;;5013181;28;20167;-73
2023/05/18 10:04:42;;;;;;;7.90;4.80;;;16.70;95.50;;;;;;5013187;28;20177;-70
2023/05/18 10:07:12;;;;;;;11.73;4.90;;;16.80;94.60;;;;;;4995756;28;20927;-72
2023/05/18 10:09:42;;;;;;;6.23;3.77;;;16.60;94.00;;;;;;5013375;28;20940;-72
2023/05/18 10:12:16;;;;;;;8.00;4.40;;;16.70;94.20;;;;;;5012933;28;20416;-72
2023/05/18 10:14:43;;;;;;;7.80;4.40;;;16.70;94.20;;;;;;5013174;28;20951;-72
2023/05/18 10:17:13;;;;;;;8.37;4.03;;;17.10;94.20;;;;;;5013746;28;20492;-72
2023/05/18 10:19:43;;;;;;;9.00;5.43;;;17.00;93.20;;;;;;5012927;28;20408;-75
2023/05/18 10:22:09;;;;;;;6.63;4.00;;;17.10;93.70;;;;;;5012948;28;20407;-71
2023/05/18 10:24:40;;;;;;;7.47;3.57;;;17.20;93.50;;;;;;5013819;28;20514;-72
2023/05/18 10:27:08;;;;;;;7.17;4.27;;;17.40;92.90;;;;;;5013026;28;20401;-72
2023/05/18 10:29:36;;;;;;;11.07;5.50;;;17.20;93.30;;;;;;4995699;28;20421;-73
2023/05/18 10:32:03;;;;;;;9.10;6.00;;;17.30;92.50;;;;;;5013637;28;20492;-72
2023/05/18 10:34:30;;;;;;;8.63;4.60;;;17.50;92.30;;;;;;5013116;28;20452;-72
2023/05/18 10:36:58;;;;;;;3.77;3.37;;;17.80;92.70;;;;;;5012784;28;20591;-73
2023/05/18 10:39:25;;;;;;;9.97;4.20;;;17.70;92.20;;;;;;5013325;28;20417;-73
2023/05/18 10:41:54;;;;;;;6.97;4.17;;;17.50;91.60;;;;;;5013043;28;20964;-73
2023/05/18 10:44:22;;;;;;;6.93;4.77;;;17.50;93.40;;;;;;4995576;28;20955;-72
2023/05/18 10:46:49;;;;;;;9.10;4.00;;;17.60;92.20;;;;;;5013101;28;20453;-73
2023/05/18 10:49:16;;;;;;;6.43;4.17;;;17.80;92.30;;;;;;4995489;28;20493;-72
2023/05/18 10:51:45;;;;;;;7.53;4.20;;;17.70;91.20;;;;;;5013049;28;20476;-73
2023/05/18 10:54:12;;;;;;;7.87;4.50;;;17.40;91.30;;;;;;5018264;28;20451;-73
2023/05/18 10:56:46;;;;;;;5.80;4.00;;;17.50;91.40;;;;;;5015427;28;20424;-73
2023/05/18 10:59:13;;;;;;;8.33;4.00;;;17.80;92.70;;;;;;5033546;28;20423;-73
2023/05/18 11:01:40;;;;;;;6.70;3.80;;;18.00;92.00;;;;;;5038210;28;20411;-73
2023/05/18 11:04:06;;;;;;;6.70;4.17;;;18.20;90.50;;;;;;5037304;28;20516;-71
2023/05/18 11:06:34;;;;;;;7.03;4.10;;;18.30;90.60;;;;;;5036133;28;20527;-73
2023/05/18 11:09:00;;;;;;;8.77;4.30;;;18.40;90.70;;;;;;5018400;28;20433;-72
2023/05/18 11:11:29;;;;;;;12.00;5.50;;;18.40;89.00;;;;;;5035601;28;20410;-71
2023/05/18 11:14:00;;;;;;;9.10;3.37;;;18.30;89.10;;;;;;5035686;28;20449;-70
2023/05/18 11:16:34;;;;;;;7.50;3.30;;;18.40;89.60;;;;;;5036059;28;20383;-71
2023/05/18 11:19:08;;;;;;;8.70;3.47;;;18.90;87.70;;;;;;5035887;28;20744;-73
2023/05/18 11:21:40;;;;;;;6.27;3.30;;;19.90;86.40;;;;;;5035518;28;20489;-70
2023/05/18 11:24:18;;;;;;;6.27;3.57;;;20.70;82.10;;;;;;5035493;28;20488;-71
2023/05/18 11:26:46;;;;;;;5.40;3.40;;;21.70;78.20;;;;;;5035612;28;20409;-71
2023/05/18 11:29:20;;;;;;;5.20;3.40;;;20.70;76.60;;;;;;5032251;28;20402;-73
2023/05/18 11:31:47;;;;;;;7.77;3.67;;;20.90;77.40;;;;;;5035845;28;20472;-72
2023/05/18 11:34:43;;;;;;;8.07;3.40;;;22.40;72.90;;;;;;5035591;28;20458;-73
2023/05/18 11:37:37;;;;;;;5.77;3.50;;;22.40;71.70;;;;;;5035156;28;20405;-73
2023/05/18 11:40:04;;;;;;;5.77;3.07;;;23.20;71.10;;;;;;5020984;28;20790;-73
2023/05/18 11:42:36;;;;;;;5.83;3.43;;;23.20;67.80;;;;;;5035030;28;20417;-70
2023/05/18 11:45:09;;;;;;;4.23;3.10;;;24.80;67.70;;;;;;5035588;28;20438;-73
2023/05/18 11:47:36;;;;;;;6.73;3.20;;;24.20;60.90;;;;;;5035334;28;20475;-72
2023/05/18 11:50:05;;;;;;;6.63;4.00;;;21.90;65.90;;;;;;5035250;28;20420;-71
2023/05/18 11:52:31;;;;;;;6.97;3.80;;;20.40;69.00;;;;;;5034988;28;20464;-73
2023/05/18 11:54:58;;;;;;;5.83;3.57;;;20.60;69.60;;;;;;5024151;28;20545;-71
2023/05/18 11:57:25;;;;;;;6.20;3.10;;;21.40;69.60;;;;;;5015499;28;20163;-73
2023/05/18 11:59:57;;;;;;;7.20;3.50;;;22.50;66.90;;;;;;5015371;28;20399;-72
2023/05/18 12:02:25;;;;;;;7.70;3.60;;;23.40;64.10;;;;;;5015081;28;20446;-73
2023/05/18 12:04:55;;;;;;;7.93;3.17;;;24.30;63.50;;;;;;5015280;28;20834;-74
2023/05/18 12:07:23;;;;;;;5.70;3.23;;;24.10;61.90;;;;;;5015306;28;20394;-73
2023/05/18 12:09:49;;;;;;;5.13;3.00;;;23.80;61.80;;;;;;4997091;28;20851;-71
2023/05/18 12:12:18;;;;;;;4.10;3.10;;;22.70;62.90;;;;;;5014918;28;20778;-76
2023/05/18 12:14:48;;;;;;;6.27;3.10;;;22.60;64.40;;;;;;5015205;28;20230;-72
2023/05/18 12:17:14;;;;;;;7.53;3.33;;;22.60;63.30;;;;;;5015084;28;20544;-72
2023/05/18 12:19:43;;;;;;;5.50;3.13;;;21.90;64.30;;;;;;5015075;28;20407;-75
2023/05/18 12:22:10;;;;;;;11.50;7.13;;;21.50;66.10;;;;;;5014724;28;20207;-73
2023/05/18 12:24:38;;;;;;;5.77;3.30;;;22.00;65.30;;;;;;5024329;28;20420;-75
2023/05/18 12:27:06;;;;;;;5.63;2.63;;;23.30;62.90;;;;;;5054573;28;20953;-73
2023/05/18 12:29:32;;;;;;;6.03;3.50;;;23.40;62.30;;;;;;5054873;28;20861;-73
2023/05/18 12:31:58;;;;;;;6.33;3.90;;;22.90;62.00;;;;;;5054274;28;20401;-73
2023/05/18 12:34:29;;;;;;;5.63;2.97;;;21.50;64.90;;;;;;5036471;28;20515;-74
2023/05/18 12:36:55;;;;;;;7.93;3.40;;;22.50;64.50;;;;;;5054199;28;20167;-72
2023/05/18 12:39:21;;;;;;;6.83;3.50;;;22.10;62.70;;;;;;5049656;28;20513;-72
2023/05/18 12:41:47;;;;;;;8.20;3.37;;;23.40;63.80;;;;;;5033920;28;20407;-73
2023/05/18 12:44:13;;;;;;;3.63;2.73;;;23.80;60.50;;;;;;5034082;28;20187;-73
2023/05/18 12:46:40;;;;;;;6.67;2.97;;;22.70;61.30;;;;;;5034141;28;20401;-72
2023/05/18 12:49:06;;;;;;;5.63;3.03;;;23.20;62.00;;;;;;5016604;28;20294;-72